createdAt,value
2023-03-01T00:02:59.014Z,73
2023-03-01T00:06:24.142Z,76
2023-03-01T00:09:49.321Z,77
2023-03-01T00:13:14.506Z,77
2023-03-01T00:16:39.767Z,78
2023-03-01T00:20:04.793Z,77
2023-03-01T00:23:29.932Z,77
2023-03-01T00:26:55.079Z,77
2023-03-01T00:30:20.287Z,75
2023-03-01T00:33:45.426Z,74
2023-03-01T00:37:10.607Z,76
2023-03-01T00:40:35.774Z,76
2023-03-01T00:44:00.906Z,74
2023-03-01T00:47:26.136Z,75
2023-03-01T00:50:51.240Z,76
2023-03-01T00:54:16.416Z,76
2023-03-01T00:57:42.580Z,77
2023-03-01T01:01:07.740Z,79
2023-03-01T01:04:32.896Z,79
2023-03-01T01:07:58.043Z,79
2023-03-01T01:11:23.231Z,78
2023-03-01T01:14:48.415Z,78
2023-03-01T01:18:13.604Z,78
2023-03-01T01:21:38.786Z,79
2023-03-01T01:25:03.926Z,79
2023-03-01T01:28:29.070Z,80
2023-03-01T01:31:54.293Z,79
2023-03-01T01:35:19.451Z,79
2023-03-01T01:38:44.674Z,79
2023-03-01T01:42:09.767Z,79
2023-03-01T01:45:34.927Z,79
2023-03-01T01:49:00.131Z,79
2023-03-01T01:52:25.295Z,79
2023-03-01T01:55:50.492Z,79
2023-03-01T01:59:15.674Z,79
2023-03-01T02:02:41.081Z,79
2023-03-01T02:06:06.041Z,79
2023-03-01T02:09:31.203Z,79
2023-03-01T02:12:56.387Z,79
2023-03-01T02:16:21.564Z,79
2023-03-01T02:19:46.676Z,79
2023-03-01T02:23:11.836Z,79
2023-03-01T02:26:36.993Z,79
2023-03-01T02:30:02.198Z,79
2023-03-01T02:33:27.343Z,80
2023-03-01T02:36:52.487Z,80
2023-03-01T02:40:17.644Z,79
2023-03-01T02:43:42.807Z,79
2023-03-01T02:47:07.975Z,79
2023-03-01T02:50:33.115Z,79
2023-03-01T02:53:58.285Z,79
2023-03-01T02:57:23.438Z,79
2023-03-01T03:00:48.633Z,79
2023-03-01T03:04:13.782Z,80
2023-03-01T03:07:38.942Z,80
2023-03-01T03:11:04.123Z,80
2023-03-01T03:14:29.299Z,80
2023-03-01T03:17:54.472Z,80
2023-03-01T03:21:19.669Z,80
2023-03-01T03:24:44.833Z,80
2023-03-01T03:28:09.981Z,80
2023-03-01T03:31:35.204Z,80
2023-03-01T03:35:00.308Z,80
2023-03-01T03:38:25.475Z,80
2023-03-01T03:41:50.610Z,80
2023-03-01T03:45:15.765Z,80
2023-03-01T03:48:40.940Z,80
2023-03-01T03:52:06.081Z,80
2023-03-01T03:55:31.270Z,80
2023-03-01T03:58:56.405Z,79
2023-03-01T04:02:21.581Z,79
2023-03-01T04:05:46.710Z,80
2023-03-01T04:09:11.859Z,80
2023-03-01T04:12:37.061Z,80
2023-03-01T04:16:02.191Z,80
2023-03-01T04:19:27.351Z,80
2023-03-01T04:22:52.463Z,80
2023-03-01T04:26:17.670Z,80
2023-03-01T04:29:42.869Z,80
2023-03-01T04:33:08.064Z,80
2023-03-01T04:36:33.524Z,80
2023-03-01T04:39:58.917Z,79
2023-03-01T04:43:24.079Z,79
2023-03-01T04:46:49.278Z,80
2023-03-01T04:50:14.421Z,80
2023-03-01T04:53:39.615Z,80
2023-03-01T04:57:04.785Z,80
2023-03-01T05:00:29.952Z,80
2023-03-01T05:03:55.134Z,80
2023-03-01T05:07:20.265Z,81
2023-03-01T05:10:45.412Z,82
2023-03-01T05:14:10.571Z,82
2023-03-01T05:17:35.768Z,82
2023-03-01T05:21:00.966Z,81
2023-03-01T05:24:27.110Z,81
2023-03-01T05:27:52.285Z,80
2023-03-01T05:31:17.457Z,80
2023-03-01T05:34:42.600Z,80
2023-03-01T05:38:07.799Z,79
2023-03-01T05:41:32.935Z,79
2023-03-01T05:44:58.096Z,79
2023-03-01T05:48:23.240Z,79
2023-03-01T05:51:48.398Z,80
2023-03-01T05:55:13.616Z,80
2023-03-01T05:58:38.768Z,80
2023-03-01T06:02:03.944Z,80
2023-03-01T06:05:29.183Z,80
2023-03-01T06:08:54.271Z,79
2023-03-01T06:12:19.452Z,78
2023-03-01T06:15:44.604Z,79
2023-03-01T06:19:09.752Z,80
2023-03-01T06:22:34.932Z,80
2023-03-01T06:26:00.141Z,80
2023-03-01T06:29:25.341Z,80
2023-03-01T06:32:50.590Z,81
2023-03-01T06:36:15.765Z,81
2023-03-01T06:39:40.900Z,80
2023-03-01T06:43:06.070Z,80
2023-03-01T06:46:31.574Z,80
2023-03-01T06:49:56.441Z,80
2023-03-01T06:53:21.661Z,80
2023-03-01T06:56:46.808Z,80
2023-03-01T07:00:11.949Z,80
2023-03-01T07:06:55.163Z,80
2023-03-01T07:10:20.455Z,80
2023-03-01T07:13:45.680Z,80
2023-03-01T07:17:10.870Z,79
2023-03-01T07:20:36.016Z,79
2023-03-01T07:24:01.226Z,80
2023-03-01T07:27:26.380Z,79
2023-03-01T07:30:51.556Z,78
2023-03-01T07:34:16.725Z,78
2023-03-01T07:37:41.896Z,80
2023-03-01T07:41:07.129Z,81
2023-03-01T07:44:32.242Z,82
2023-03-01T07:47:57.464Z,81
2023-03-01T07:51:23.049Z,83
2023-03-01T07:54:48.223Z,83
2023-03-01T07:58:13.414Z,83
2023-03-01T08:01:38.601Z,83
2023-03-01T08:05:03.734Z,82
2023-03-01T08:08:30.046Z,81
2023-03-01T08:11:55.852Z,79
2023-03-01T08:15:21.313Z,78
2023-03-01T08:18:47.475Z,78
2023-03-01T08:22:12.652Z,78
2023-03-01T08:25:37.842Z,78
2023-03-01T08:29:02.986Z,77
2023-03-01T08:32:28.257Z,78
2023-03-01T08:35:53.376Z,78
2023-03-01T08:39:18.543Z,80
2023-03-01T08:42:43.682Z,80
2023-03-01T08:46:08.890Z,78
2023-03-01T08:49:34.057Z,77
2023-03-01T08:52:59.219Z,76
2023-03-01T08:56:24.397Z,76
2023-03-01T08:59:49.569Z,75
2023-03-01T09:03:14.738Z,75
2023-03-01T09:06:39.941Z,75
2023-03-01T09:10:05.114Z,75
2023-03-01T09:13:30.325Z,75
2023-03-01T09:16:55.560Z,75
2023-03-01T09:20:20.690Z,74
2023-03-01T09:23:45.953Z,74
2023-03-01T09:27:11.043Z,74
2023-03-01T09:30:36.231Z,74
2023-03-01T09:34:01.396Z,74
2023-03-01T09:37:26.576Z,72
2023-03-01T09:40:51.738Z,72
2023-03-01T09:44:16.899Z,72
2023-03-01T09:47:42.090Z,72
2023-03-01T09:51:07.226Z,73
2023-03-01T09:54:32.408Z,72
2023-03-01T09:57:57.591Z,73
2023-03-01T10:01:22.748Z,74
2023-03-01T10:04:47.966Z,74
2023-03-01T10:08:13.118Z,72
2023-03-01T10:11:38.585Z,71
2023-03-01T10:15:03.567Z,73
2023-03-01T10:18:28.762Z,72
2023-03-01T10:21:53.970Z,72
2023-03-01T10:25:19.169Z,73
2023-03-01T10:28:44.368Z,73
2023-03-01T10:32:09.601Z,73
2023-03-01T10:35:34.805Z,71
2023-03-01T10:38:59.989Z,71
2023-03-01T10:42:25.173Z,70
2023-03-01T10:45:50.439Z,73
2023-03-01T10:49:15.883Z,72
2023-03-01T10:52:41.035Z,72
2023-03-01T10:56:06.322Z,71
2023-03-01T10:59:31.620Z,70
2023-03-01T11:02:56.905Z,70
2023-03-01T11:06:22.280Z,69
2023-03-01T11:09:47.600Z,71
2023-03-01T11:13:12.858Z,68
2023-03-01T11:16:38.136Z,68
2023-03-01T11:20:03.415Z,70
2023-03-01T11:23:28.695Z,67
2023-03-01T11:26:53.876Z,68
2023-03-01T11:30:19.137Z,70
2023-03-01T11:33:44.378Z,68
2023-03-01T11:37:09.550Z,68
2023-03-01T11:40:34.803Z,67
2023-03-01T11:44:00.007Z,68
2023-03-01T11:47:25.339Z,69
2023-03-01T11:50:50.512Z,67
2023-03-01T11:54:15.756Z,68
2023-03-01T11:57:43.643Z,68
2023-03-01T12:01:06.247Z,69
2023-03-01T12:04:31.535Z,69
2023-03-01T12:07:56.765Z,68
2023-03-01T12:11:22.109Z,69
2023-03-01T12:14:47.461Z,69
2023-03-01T12:18:12.900Z,69
2023-03-01T12:21:38.226Z,68
2023-03-01T12:25:03.521Z,68
2023-03-01T12:28:28.712Z,66
2023-03-01T12:31:54.124Z,69
2023-03-01T12:35:19.180Z,69
2023-03-01T12:38:44.611Z,68
2023-03-01T12:42:09.818Z,70
2023-03-01T12:45:35.140Z,71
2023-03-01T12:49:00.420Z,73
2023-03-01T12:52:25.681Z,71
2023-03-01T12:55:50.963Z,71
2023-03-01T12:59:16.169Z,71
2023-03-01T13:02:41.421Z,71
2023-03-01T13:06:06.671Z,71
2023-03-01T13:09:31.788Z,70
2023-03-01T13:12:57.023Z,71
2023-03-01T13:16:22.246Z,71
2023-03-01T13:19:47.762Z,72
2023-03-01T13:23:12.942Z,72
2023-03-01T13:26:38.103Z,71
2023-03-01T13:30:03.257Z,72
2023-03-01T13:33:28.446Z,73
2023-03-01T13:36:54.709Z,72
2023-03-01T13:40:19.903Z,74
2023-03-01T13:43:44.986Z,75
2023-03-01T13:47:10.198Z,74
2023-03-01T13:50:35.354Z,75
2023-03-01T13:54:00.663Z,74
2023-03-01T13:57:26.003Z,75
2023-03-01T14:00:52.000Z,74
2023-03-01T14:04:17.277Z,73
2023-03-01T14:07:42.589Z,73
2023-03-01T14:11:08.538Z,74
2023-03-01T14:14:33.982Z,74
2023-03-01T14:17:59.266Z,75
2023-03-01T14:21:24.635Z,74
2023-03-01T14:24:50.084Z,74
2023-03-01T14:28:15.411Z,74
2023-03-01T15:06:05.698Z,74
2023-03-01T15:09:30.928Z,74
2023-03-01T15:12:56.185Z,74
2023-03-01T15:16:21.484Z,74
2023-03-01T15:19:46.609Z,74
2023-03-01T15:23:11.842Z,73
2023-03-01T15:26:37.389Z,73
2023-03-01T15:30:02.647Z,74
2023-03-01T15:33:27.844Z,74
2023-03-01T15:36:53.109Z,74
2023-03-01T15:40:18.391Z,74
2023-03-01T15:43:43.600Z,73
2023-03-01T15:47:08.834Z,74
2023-03-01T15:50:34.095Z,74
2023-03-01T15:53:59.446Z,73
2023-03-01T15:57:24.649Z,73
2023-03-01T16:01:00.127Z,74
2023-03-01T16:04:15.152Z,73
2023-03-01T16:07:40.369Z,73
2023-03-01T16:11:05.601Z,73
2023-03-01T16:14:30.882Z,74
2023-03-01T16:17:56.211Z,74
2023-03-01T16:21:21.483Z,75
2023-03-01T16:24:46.738Z,75
2023-03-01T16:28:11.982Z,75
2023-03-01T16:31:37.275Z,76
2023-03-01T16:35:02.456Z,76
2023-03-01T16:38:27.729Z,76
2023-03-01T16:41:52.966Z,76
2023-03-01T16:45:24.166Z,76
2023-03-01T16:48:43.455Z,76
2023-03-01T16:52:08.658Z,76
2023-03-01T16:55:33.874Z,77
2023-03-01T16:58:59.118Z,76
2023-03-01T17:02:24.322Z,76
2023-03-01T17:05:49.597Z,75
2023-03-01T17:09:14.810Z,74
2023-03-01T17:12:40.046Z,74
2023-03-01T17:16:05.305Z,74
2023-03-01T17:19:30.551Z,74
2023-03-01T17:22:55.810Z,75
2023-03-01T17:26:21.047Z,75
2023-03-01T17:29:46.260Z,75
2023-03-01T17:33:11.467Z,74
2023-03-01T17:36:36.663Z,74
2023-03-01T17:40:01.940Z,74
2023-03-01T17:43:27.091Z,75
2023-03-01T17:46:52.251Z,75
2023-03-01T17:50:17.451Z,75
2023-03-01T17:53:42.629Z,75
2023-03-01T17:57:07.866Z,75
2023-03-01T18:00:32.984Z,76
2023-03-01T18:03:58.201Z,76
2023-03-01T18:07:23.408Z,76
2023-03-01T18:10:48.581Z,76
2023-03-01T18:14:13.773Z,76
2023-03-01T18:17:38.925Z,76
2023-03-01T18:21:04.089Z,76
2023-03-01T18:24:29.273Z,77
2023-03-01T18:27:54.455Z,77
2023-03-01T18:31:19.661Z,77
2023-03-01T18:34:44.778Z,77
2023-03-01T18:38:10.006Z,77
2023-03-01T18:41:35.247Z,78
2023-03-01T18:45:00.421Z,78
2023-03-01T18:48:25.701Z,78
2023-03-01T18:51:50.878Z,78
2023-03-01T18:55:16.069Z,78
2023-03-01T18:58:41.261Z,78
2023-03-01T19:02:06.520Z,78
2023-03-01T19:05:31.635Z,77
2023-03-01T19:08:56.788Z,77
2023-03-01T19:12:21.980Z,76
2023-03-01T19:15:47.253Z,76
2023-03-01T19:19:12.342Z,75
2023-03-01T19:22:37.554Z,75
2023-03-01T19:26:02.717Z,75
2023-03-01T19:29:27.896Z,75
2023-03-01T19:32:53.047Z,75
2023-03-01T19:36:18.208Z,75
2023-03-01T19:39:43.650Z,74
2023-03-01T19:43:08.819Z,74
2023-03-01T19:46:34.486Z,74
2023-03-01T19:49:59.198Z,73
2023-03-01T19:53:24.354Z,74
2023-03-01T19:56:49.547Z,74
2023-03-01T20:00:14.663Z,73
2023-03-01T20:03:39.862Z,73
2023-03-01T20:07:05.027Z,73
2023-03-01T20:10:30.217Z,73
2023-03-01T20:13:55.409Z,73
2023-03-01T20:17:20.570Z,73
2023-03-01T20:20:45.737Z,73
2023-03-01T20:24:10.920Z,73
2023-03-01T20:27:36.068Z,73
2023-03-01T20:31:01.308Z,73
2023-03-01T20:34:26.386Z,74
2023-03-01T20:37:51.533Z,74
2023-03-01T20:41:16.708Z,74
2023-03-01T20:44:41.887Z,74
2023-03-01T20:48:07.083Z,74
2023-03-01T20:51:32.222Z,74
2023-03-01T20:54:57.402Z,74
2023-03-01T20:58:22.551Z,75
2023-03-01T21:01:47.736Z,74
2023-03-01T21:05:12.934Z,74
2023-03-01T21:08:38.087Z,74
2023-03-01T21:12:03.252Z,74
2023-03-01T21:15:29.542Z,74
2023-03-01T21:18:53.626Z,74
2023-03-01T21:22:18.851Z,74
2023-03-01T21:25:44.000Z,73
2023-03-01T21:29:09.184Z,73
2023-03-01T21:32:34.361Z,73
2023-03-01T21:35:59.576Z,73
2023-03-01T21:39:24.722Z,73
2023-03-01T21:42:49.896Z,73
2023-03-01T21:46:15.097Z,74
2023-03-01T21:49:40.249Z,74
2023-03-01T21:53:05.420Z,74
2023-03-01T21:56:30.878Z,75
2023-03-01T21:59:55.765Z,75
2023-03-01T22:03:20.993Z,75
2023-03-01T22:06:46.118Z,74
2023-03-01T22:10:11.294Z,74
2023-03-01T22:13:36.463Z,74
2023-03-01T22:17:01.696Z,73
2023-03-01T22:20:26.787Z,74
2023-03-01T22:23:51.997Z,74
2023-03-01T22:27:17.139Z,74
2023-03-01T22:30:42.622Z,74
2023-03-01T22:34:07.469Z,74
2023-03-01T22:37:32.626Z,74
2023-03-01T22:40:57.821Z,74
2023-03-01T22:44:23.030Z,74
2023-03-01T22:47:48.187Z,74
2023-03-01T22:51:13.338Z,74
2023-03-01T22:54:38.513Z,74
2023-03-01T22:58:03.656Z,74
2023-03-01T23:01:28.835Z,74
2023-03-01T23:04:54.038Z,75
2023-03-01T23:08:19.168Z,74
2023-03-01T23:11:44.330Z,74
2023-03-01T23:15:09.505Z,74
2023-03-01T23:18:34.664Z,74
2023-03-01T23:21:59.855Z,74
2023-03-01T23:25:24.989Z,73
2023-03-01T23:28:50.142Z,73
2023-03-01T23:32:15.383Z,74
2023-03-01T23:35:40.606Z,74
2023-03-01T23:39:05.720Z,74
2023-03-01T23:42:30.855Z,75
2023-03-01T23:45:57.106Z,75
2023-03-01T23:49:22.276Z,75
2023-03-01T23:52:47.388Z,75
2023-03-01T23:56:12.564Z,75
2023-03-01T23:59:37.703Z,75
